RYR87KH EPKK-LEGE
Flight info
| Callsign | RYR87KH |
|---|---|
| Flight time | 2h 20m |
| Altitude | 36000 |
| Route | BABKO DCT VADEX DCT BABNI DCT DETSA/N0438F370 DCT NESTI DCT VOG DCT GEKBA DCT VAMTU DCT KOLON/N0434F350 DCT GANGU DCT PADKO DCT DIVKO DCT MAMES M984 BGR |
| Aircraft | B738/M-SADE3FGIJ1LRWY/SB1 |
Departure
| Time | 2026-04-25 14:09 |
|---|---|
| Airport | Kraków John Paul II International Airport (EPKK) |
Arrival
| Time | 2026-04-25 16:30 |
|---|---|
| Airport | Girona-Costa Brava Airport (LEGE) |
| Time | Latitude | Longitude | Altitude | Speed | Heading |
|---|---|---|---|---|---|
| 2026-04-25 13:23 | 50.07339 | 19.80055 | 788 ft | 0 kts | 168° |
| 2026-04-25 14:01 | 50.07342 | 19.80055 | 788 ft | 3 kts | 168° |
| 2026-04-25 14:01 | 50.07367 | 19.80045 | 788 ft | 4 kts | 161° |
| 2026-04-25 14:01 | 50.07391 | 19.80028 | 788 ft | 4 kts | 131° |
| 2026-04-25 14:01 | 50.07397 | 19.80000 | 788 ft | 3 kts | 78° |
| 2026-04-25 14:02 | 50.07394 | 19.79976 | 788 ft | 0 kts | 78° |
| 2026-04-25 14:06 | 50.07395 | 19.79981 | 788 ft | 2 kts | 77° |
| 2026-04-25 14:06 | 50.07399 | 19.80015 | 788 ft | 6 kts | 78° |
| 2026-04-25 14:06 | 50.07413 | 19.80116 | 788 ft | 13 kts | 78° |
| 2026-04-25 14:06 | 50.07437 | 19.80291 | 788 ft | 20 kts | 78° |
| 2026-04-25 14:07 | 50.07536 | 19.80407 | 788 ft | 19 kts | 18° |
| 2026-04-25 14:07 | 50.07666 | 19.80397 | 789 ft | 19 kts | 348° |
| 2026-04-25 14:07 | 50.07792 | 19.80354 | 789 ft | 18 kts | 347° |
| 2026-04-25 14:07 | 50.07912 | 19.80312 | 789 ft | 18 kts | 348° |
| 2026-04-25 14:08 | 50.08016 | 19.80240 | 788 ft | 16 kts | 283° |
| 2026-04-25 14:08 | 50.08001 | 19.80105 | 788 ft | 13 kts | 257° |
| 2026-04-25 14:08 | 50.07946 | 19.79708 | 788 ft | 72 kts | 258° |
| 2026-04-25 14:08 | 50.07793 | 19.78614 | 790 ft | 132 kts | 257° |
| 2026-04-25 14:09 | 50.07579 | 19.77062 | 1142 ft | 152 kts | 259° |
| 2026-04-25 14:09 | 50.07365 | 19.75559 | 2138 ft | 141 kts | 259° |
| 2026-04-25 14:09 | 50.07102 | 19.73931 | 2534 ft | 171 kts | 259° |
| 2026-04-25 14:09 | 50.06923 | 19.72688 | 2908 ft | 184 kts | 260° |
| 2026-04-25 14:10 | 50.06558 | 19.69981 | 3727 ft | 190 kts | 260° |
| 2026-04-25 14:10 | 50.06277 | 19.68004 | 4537 ft | 190 kts | 258° |
| 2026-04-25 14:10 | 50.05541 | 19.66091 | 4728 ft | 226 kts | 224° |
| 2026-04-25 14:10 | 50.04083 | 19.64813 | 5080 ft | 258 kts | 205° |
| 2026-04-25 14:11 | 50.02345 | 19.63988 | 5704 ft | 270 kts | 200° |
| 2026-04-25 14:11 | 50.00491 | 19.63236 | 6377 ft | 280 kts | 200° |
| 2026-04-25 14:11 | 49.98593 | 19.62487 | 7189 ft | 281 kts | 200° |
| 2026-04-25 14:11 | 49.96677 | 19.61723 | 7947 ft | 286 kts | 200° |
| 2026-04-25 14:12 | 49.94739 | 19.60937 | 8736 ft | 289 kts | 200° |
| 2026-04-25 14:12 | 49.92780 | 19.60128 | 9490 ft | 293 kts | 200° |
| 2026-04-25 14:12 | 49.90820 | 19.59315 | 10180 ft | 297 kts | 200° |
| 2026-04-25 14:12 | 49.88747 | 19.58444 | 10444 ft | 319 kts | 200° |
| 2026-04-25 14:13 | 49.86527 | 19.57503 | 10621 ft | 341 kts | 199° |
| 2026-04-25 14:13 | 49.84186 | 19.56516 | 11068 ft | 352 kts | 199° |
| 2026-04-25 14:13 | 49.81833 | 19.55532 | 11743 ft | 357 kts | 199° |
| 2026-04-25 14:13 | 49.79427 | 19.54528 | 12459 ft | 360 kts | 199° |
| 2026-04-25 14:14 | 49.76989 | 19.53508 | 13119 ft | 365 kts | 200° |
| 2026-04-25 14:14 | 49.74525 | 19.52477 | 13778 ft | 368 kts | 200° |
| 2026-04-25 14:14 | 49.72041 | 19.51433 | 14422 ft | 370 kts | 200° |
| 2026-04-25 14:14 | 49.69545 | 19.50388 | 15066 ft | 372 kts | 200° |
| 2026-04-25 14:15 | 49.67033 | 19.49336 | 15623 ft | 376 kts | 200° |
| 2026-04-25 14:15 | 49.66178 | 19.48978 | 15816 ft | 377 kts | 200° |
| 2026-04-25 14:15 | 49.62078 | 19.46864 | 16837 ft | 374 kts | 213° |
| 2026-04-25 14:15 | 49.59908 | 19.44693 | 17401 ft | 370 kts | 224° |
| 2026-04-25 14:16 | 49.58061 | 19.41954 | 18017 ft | 367 kts | 232° |
| 2026-04-25 14:16 | 49.56321 | 19.39045 | 18609 ft | 368 kts | 232° |
| 2026-04-25 14:16 | 49.54570 | 19.36142 | 19135 ft | 370 kts | 232° |
| 2026-04-25 14:16 | 49.52802 | 19.33234 | 19647 ft | 372 kts | 232° |
| 2026-04-25 14:17 | 49.51044 | 19.30358 | 20155 ft | 373 kts | 232° |
| 2026-04-25 14:17 | 49.49253 | 19.27439 | 20678 ft | 374 kts | 232° |
| 2026-04-25 14:17 | 49.47458 | 19.24523 | 21171 ft | 376 kts | 232° |
| 2026-04-25 14:17 | 49.45655 | 19.21597 | 21679 ft | 377 kts | 233° |
| 2026-04-25 14:18 | 49.43841 | 19.18660 | 22157 ft | 379 kts | 233° |
| 2026-04-25 14:18 | 49.42015 | 19.15706 | 22645 ft | 381 kts | 233° |
| 2026-04-25 14:18 | 49.40207 | 19.12785 | 23091 ft | 383 kts | 233° |
| 2026-04-25 14:18 | 49.38356 | 19.09797 | 23553 ft | 384 kts | 233° |
| 2026-04-25 14:19 | 49.36529 | 19.06850 | 23930 ft | 386 kts | 233° |
| 2026-04-25 14:19 | 49.34667 | 19.03854 | 24278 ft | 389 kts | 233° |
| 2026-04-25 14:19 | 49.32794 | 19.00839 | 24624 ft | 391 kts | 233° |
| 2026-04-25 14:19 | 49.30901 | 18.97797 | 24959 ft | 393 kts | 233° |
| 2026-04-25 14:20 | 49.29011 | 18.94763 | 25318 ft | 394 kts | 233° |
| 2026-04-25 14:20 | 49.28393 | 18.93774 | 25425 ft | 395 kts | 233° |
| 2026-04-25 14:20 | 49.25237 | 18.88678 | 25966 ft | 396 kts | 235° |
| 2026-04-25 14:20 | 49.23559 | 18.85356 | 26291 ft | 393 kts | 242° |
| 2026-04-25 14:21 | 49.22028 | 18.81882 | 26593 ft | 394 kts | 242° |
| 2026-04-25 14:21 | 49.20494 | 18.78378 | 26904 ft | 395 kts | 242° |
| 2026-04-25 14:21 | 49.18954 | 18.74880 | 27202 ft | 397 kts | 242° |
| 2026-04-25 14:21 | 49.17418 | 18.71421 | 27490 ft | 399 kts | 242° |
| 2026-04-25 14:22 | 49.15850 | 18.67915 | 27758 ft | 400 kts | 241° |
| 2026-04-25 14:22 | 49.14265 | 18.64391 | 28027 ft | 402 kts | 241° |
| 2026-04-25 14:22 | 49.12676 | 18.60870 | 28308 ft | 403 kts | 241° |
| 2026-04-25 14:22 | 49.11076 | 18.57331 | 28595 ft | 404 kts | 241° |
| 2026-04-25 14:23 | 49.09498 | 18.53844 | 28850 ft | 405 kts | 241° |
| 2026-04-25 14:23 | 49.07881 | 18.50278 | 29039 ft | 407 kts | 241° |
| 2026-04-25 14:23 | 49.06266 | 18.46722 | 29283 ft | 409 kts | 240° |
| 2026-04-25 14:23 | 49.04643 | 18.43151 | 29540 ft | 409 kts | 240° |
| 2026-04-25 14:24 | 49.03035 | 18.39619 | 29864 ft | 408 kts | 240° |
| 2026-04-25 14:24 | 49.01413 | 18.36061 | 30235 ft | 405 kts | 240° |
| 2026-04-25 14:24 | 48.99803 | 18.32530 | 30503 ft | 405 kts | 240° |
| 2026-04-25 14:24 | 48.98210 | 18.29043 | 30726 ft | 405 kts | 240° |
| 2026-04-25 14:25 | 48.96592 | 18.25453 | 30953 ft | 404 kts | 242° |
| 2026-04-25 14:25 | 48.95255 | 18.21788 | 31209 ft | 399 kts | 248° |
| 2026-04-25 14:25 | 48.94044 | 18.17991 | 31453 ft | 399 kts | 249° |
| 2026-04-25 14:26 | 48.91639 | 18.10399 | 31956 ft | 397 kts | 248° |
| 2026-04-25 14:26 | 48.90431 | 18.06618 | 32171 ft | 397 kts | 248° |
| 2026-04-25 14:26 | 48.89217 | 18.02841 | 32398 ft | 397 kts | 248° |
| 2026-04-25 14:26 | 48.88000 | 17.99079 | 32631 ft | 396 kts | 248° |
| 2026-04-25 14:27 | 48.86799 | 17.95378 | 32869 ft | 395 kts | 248° |
| 2026-04-25 14:27 | 48.85581 | 17.91636 | 33067 ft | 395 kts | 248° |
| 2026-04-25 14:27 | 48.84360 | 17.87895 | 33295 ft | 394 kts | 248° |
| 2026-04-25 14:27 | 48.83139 | 17.84161 | 33514 ft | 393 kts | 248° |
| 2026-04-25 14:28 | 48.81920 | 17.80440 | 33720 ft | 393 kts | 248° |
| 2026-04-25 14:28 | 48.80717 | 17.76772 | 33911 ft | 392 kts | 248° |
| 2026-04-25 14:28 | 48.79497 | 17.73058 | 34075 ft | 392 kts | 248° |
| 2026-04-25 14:28 | 48.78276 | 17.69343 | 34221 ft | 392 kts | 248° |
| 2026-04-25 14:29 | 48.77057 | 17.65641 | 34373 ft | 392 kts | 248° |
| 2026-04-25 14:29 | 48.75833 | 17.61931 | 34517 ft | 392 kts | 248° |
| 2026-04-25 14:29 | 48.74609 | 17.58227 | 34661 ft | 392 kts | 248° |
| 2026-04-25 14:29 | 48.73402 | 17.54578 | 34781 ft | 393 kts | 248° |
| 2026-04-25 14:30 | 48.72175 | 17.50873 | 34902 ft | 393 kts | 248° |
| 2026-04-25 14:30 | 48.69709 | 17.43446 | 35108 ft | 394 kts | 247° |
| 2026-04-25 14:30 | 48.68473 | 17.39730 | 35208 ft | 395 kts | 247° |
| 2026-04-25 14:31 | 48.67250 | 17.36061 | 35347 ft | 395 kts | 247° |
| 2026-04-25 14:31 | 48.66008 | 17.32339 | 35482 ft | 395 kts | 247° |
| 2026-04-25 14:31 | 48.64762 | 17.28613 | 35588 ft | 395 kts | 247° |
| 2026-04-25 14:31 | 48.63534 | 17.24941 | 35702 ft | 395 kts | 247° |
| 2026-04-25 14:32 | 48.62286 | 17.21220 | 35821 ft | 395 kts | 247° |
| 2026-04-25 14:32 | 48.61039 | 17.17506 | 35923 ft | 395 kts | 247° |
| 2026-04-25 14:32 | 48.58680 | 17.10492 | 35945 ft | 396 kts | 247° |
| 2026-04-25 14:33 | 48.56191 | 17.03113 | 35957 ft | 397 kts | 247° |
| 2026-04-25 14:33 | 48.53677 | 16.95680 | 35955 ft | 397 kts | 247° |
| 2026-04-25 14:34 | 48.51167 | 16.88281 | 35958 ft | 398 kts | 247° |
| 2026-04-25 14:34 | 48.49061 | 16.82091 | 35959 ft | 398 kts | 246° |
| 2026-04-25 14:35 | 48.46530 | 16.74670 | 35959 ft | 398 kts | 246° |
| 2026-04-25 14:35 | 48.44008 | 16.67297 | 35966 ft | 397 kts | 246° |
| 2026-04-25 14:36 | 48.41467 | 16.59891 | 35969 ft | 397 kts | 246° |
| 2026-04-25 14:36 | 48.38922 | 16.52493 | 35967 ft | 397 kts | 246° |
| 2026-04-25 14:37 | 48.36392 | 16.45158 | 35971 ft | 397 kts | 246° |
| 2026-04-25 14:37 | 48.33839 | 16.37780 | 35984 ft | 397 kts | 246° |
| 2026-04-25 14:38 | 48.31297 | 16.30452 | 35967 ft | 397 kts | 246° |
| 2026-04-25 14:38 | 48.28736 | 16.23092 | 35981 ft | 396 kts | 246° |
| 2026-04-25 14:39 | 48.26171 | 16.15743 | 35978 ft | 397 kts | 246° |
| 2026-04-25 14:39 | 48.23624 | 16.08462 | 35989 ft | 396 kts | 246° |
| 2026-04-25 14:40 | 48.21050 | 16.01127 | 35994 ft | 397 kts | 246° |
| 2026-04-25 14:40 | 48.18468 | 15.93789 | 35992 ft | 397 kts | 246° |
| 2026-04-25 14:41 | 48.15888 | 15.86478 | 35990 ft | 397 kts | 246° |
| 2026-04-25 14:41 | 48.13311 | 15.79196 | 35996 ft | 397 kts | 246° |
| 2026-04-25 14:42 | 48.11154 | 15.73116 | 35993 ft | 397 kts | 245° |
| 2026-04-25 14:42 | 48.08118 | 15.64583 | 36006 ft | 397 kts | 245° |
| 2026-04-25 14:43 | 48.05531 | 15.57331 | 36007 ft | 398 kts | 245° |
| 2026-04-25 14:43 | 48.02916 | 15.50025 | 36021 ft | 397 kts | 245° |
| 2026-04-25 14:44 | 48.00315 | 15.42775 | 36020 ft | 398 kts | 245° |
| 2026-04-25 14:44 | 47.97704 | 15.35518 | 36030 ft | 398 kts | 245° |
| 2026-04-25 14:45 | 47.95062 | 15.28198 | 36027 ft | 399 kts | 245° |
| 2026-04-25 14:45 | 47.92425 | 15.20910 | 36027 ft | 400 kts | 245° |
| 2026-04-25 14:46 | 47.89787 | 15.13639 | 36025 ft | 400 kts | 245° |
| 2026-04-25 14:46 | 47.87133 | 15.06344 | 36034 ft | 400 kts | 245° |
| 2026-04-25 14:47 | 47.84923 | 15.00284 | 36030 ft | 400 kts | 245° |
| 2026-04-25 14:47 | 47.81827 | 14.91821 | 36011 ft | 400 kts | 244° |
| 2026-04-25 14:48 | 47.79175 | 14.84593 | 36021 ft | 400 kts | 244° |
| 2026-04-25 14:48 | 47.76520 | 14.77377 | 36031 ft | 400 kts | 244° |
| 2026-04-25 14:49 | 47.73864 | 14.70171 | 36035 ft | 399 kts | 244° |
| 2026-04-25 14:49 | 47.71182 | 14.62923 | 36025 ft | 400 kts | 244° |
| 2026-04-25 14:50 | 47.68507 | 14.55708 | 36027 ft | 400 kts | 244° |
| 2026-04-25 14:50 | 47.65816 | 14.48473 | 36019 ft | 400 kts | 244° |
| 2026-04-25 14:51 | 47.63118 | 14.41236 | 36038 ft | 401 kts | 244° |
| 2026-04-25 14:51 | 47.60424 | 14.34030 | 36030 ft | 401 kts | 244° |
| 2026-04-25 14:52 | 47.57708 | 14.26789 | 36038 ft | 402 kts | 244° |
| 2026-04-25 14:52 | 47.55443 | 14.20762 | 36033 ft | 402 kts | 244° |
| 2026-04-25 14:53 | 47.52267 | 14.12333 | 36040 ft | 402 kts | 243° |
| 2026-04-25 14:53 | 47.49551 | 14.05148 | 36043 ft | 402 kts | 243° |
| 2026-04-25 14:54 | 47.46811 | 13.97917 | 36040 ft | 402 kts | 243° |
| 2026-04-25 14:54 | 47.44085 | 13.90746 | 36040 ft | 401 kts | 243° |
| 2026-04-25 14:55 | 47.41346 | 13.83557 | 36046 ft | 401 kts | 243° |
| 2026-04-25 14:55 | 47.38607 | 13.76387 | 36032 ft | 400 kts | 243° |
| 2026-04-25 14:56 | 47.35881 | 13.69272 | 36056 ft | 399 kts | 243° |
| 2026-04-25 14:56 | 47.33149 | 13.62159 | 36052 ft | 400 kts | 243° |
| 2026-04-25 14:57 | 47.30408 | 13.55042 | 36020 ft | 398 kts | 243° |
| 2026-04-25 14:57 | 47.27684 | 13.47985 | 36030 ft | 398 kts | 243° |
| 2026-04-25 14:58 | 47.24936 | 13.40886 | 36034 ft | 399 kts | 243° |
| 2026-04-25 14:58 | 47.22176 | 13.33775 | 36030 ft | 400 kts | 242° |
| 2026-04-25 14:59 | 47.19404 | 13.26651 | 36033 ft | 401 kts | 242° |
| 2026-04-25 14:59 | 47.16630 | 13.19544 | 36019 ft | 403 kts | 242° |
| 2026-04-25 15:00 | 47.13830 | 13.12384 | 36038 ft | 404 kts | 242° |
| 2026-04-25 15:00 | 47.11020 | 13.05220 | 36022 ft | 405 kts | 242° |
| 2026-04-25 15:01 | 47.08210 | 12.98075 | 36016 ft | 406 kts | 242° |
| 2026-04-25 15:01 | 47.05367 | 12.90867 | 36019 ft | 405 kts | 242° |
| 2026-04-25 15:02 | 47.02545 | 12.83731 | 36012 ft | 405 kts | 242° |
| 2026-04-25 15:02 | 46.99729 | 12.76629 | 36011 ft | 404 kts | 242° |
| 2026-04-25 15:03 | 46.96916 | 12.69550 | 36014 ft | 402 kts | 242° |
| 2026-04-25 15:03 | 46.94107 | 12.62501 | 36014 ft | 402 kts | 242° |
| 2026-04-25 15:04 | 46.91278 | 12.55417 | 36020 ft | 402 kts | 241° |
| 2026-04-25 15:04 | 46.88456 | 12.48370 | 36033 ft | 402 kts | 241° |
| 2026-04-25 15:05 | 46.85640 | 12.41357 | 36023 ft | 401 kts | 241° |
| 2026-04-25 15:06 | 46.81390 | 12.30802 | 36037 ft | 400 kts | 241° |
| 2026-04-25 15:06 | 46.78313 | 12.24038 | 36066 ft | 402 kts | 235° |
| 2026-04-25 15:07 | 46.74899 | 12.17593 | 36044 ft | 403 kts | 234° |
| 2026-04-25 15:07 | 46.71451 | 12.11125 | 36063 ft | 405 kts | 234° |
| 2026-04-25 15:08 | 46.68016 | 12.04629 | 36234 ft | 407 kts | 234° |
| 2026-04-25 15:08 | 46.66289 | 12.01352 | 36360 ft | 407 kts | 234° |
| 2026-04-25 15:08 | 46.64553 | 11.98058 | 36430 ft | 409 kts | 234° |
| 2026-04-25 15:08 | 46.62823 | 11.94777 | 36582 ft | 408 kts | 234° |
| 2026-04-25 15:09 | 46.61099 | 11.91511 | 36736 ft | 407 kts | 234° |
| 2026-04-25 15:09 | 46.55962 | 11.81803 | 36921 ft | 404 kts | 234° |
| 2026-04-25 15:10 | 46.52526 | 11.75323 | 36942 ft | 405 kts | 234° |
| 2026-04-25 15:11 | 46.47318 | 11.65530 | 36941 ft | 409 kts | 234° |
| 2026-04-25 15:11 | 46.43835 | 11.59003 | 36944 ft | 412 kts | 234° |
| 2026-04-25 15:12 | 46.38529 | 11.49088 | 36928 ft | 415 kts | 234° |
| 2026-04-25 15:12 | 46.36176 | 11.44704 | 36930 ft | 415 kts | 234° |
| 2026-04-25 15:13 | 46.29677 | 11.32627 | 37104 ft | 415 kts | 234° |
| 2026-04-25 15:14 | 46.26121 | 11.26041 | 37118 ft | 414 kts | 234° |
| 2026-04-25 15:14 | 46.22578 | 11.19495 | 37113 ft | 412 kts | 234° |
| 2026-04-25 15:15 | 46.19071 | 11.13030 | 37109 ft | 410 kts | 234° |
| 2026-04-25 15:15 | 46.15558 | 11.06570 | 37110 ft | 407 kts | 234° |
| 2026-04-25 15:16 | 46.12071 | 11.00174 | 37099 ft | 404 kts | 234° |
| 2026-04-25 15:16 | 46.06877 | 10.90666 | 37084 ft | 404 kts | 234° |
| 2026-04-25 15:17 | 46.01666 | 10.81164 | 37092 ft | 405 kts | 234° |
| 2026-04-25 15:18 | 45.98168 | 10.74800 | 37044 ft | 405 kts | 234° |
| 2026-04-25 15:18 | 45.92900 | 10.65246 | 37091 ft | 408 kts | 234° |
| 2026-04-25 15:19 | 45.90547 | 10.60988 | 37070 ft | 411 kts | 234° |
| 2026-04-25 15:19 | 45.85774 | 10.52372 | 37058 ft | 415 kts | 234° |
| 2026-04-25 15:20 | 45.82171 | 10.45885 | 37058 ft | 417 kts | 234° |
| 2026-04-25 15:20 | 45.78552 | 10.39401 | 37041 ft | 418 kts | 234° |
| 2026-04-25 15:21 | 45.74908 | 10.32929 | 37004 ft | 419 kts | 234° |
| 2026-04-25 15:21 | 45.71239 | 10.26429 | 36998 ft | 419 kts | 234° |
| 2026-04-25 15:22 | 45.68189 | 10.21036 | 37001 ft | 417 kts | 234° |
| 2026-04-25 15:22 | 45.64532 | 10.14578 | 36994 ft | 415 kts | 234° |
| 2026-04-25 15:23 | 45.60912 | 10.08197 | 36988 ft | 413 kts | 234° |
| 2026-04-25 15:23 | 45.57307 | 10.01857 | 36990 ft | 411 kts | 234° |
| 2026-04-25 15:24 | 45.53688 | 9.95506 | 36991 ft | 410 kts | 233° |
| 2026-04-25 15:24 | 45.50711 | 9.90293 | 36995 ft | 410 kts | 233° |
| 2026-04-25 15:25 | 45.46506 | 9.82945 | 36996 ft | 410 kts | 233° |
| 2026-04-25 15:25 | 45.42901 | 9.76661 | 37055 ft | 411 kts | 233° |
| 2026-04-25 15:26 | 45.39277 | 9.70358 | 37055 ft | 413 kts | 233° |
| 2026-04-25 15:26 | 45.35617 | 9.64006 | 37050 ft | 414 kts | 233° |
| 2026-04-25 15:27 | 45.31958 | 9.57672 | 37042 ft | 416 kts | 233° |
| 2026-04-25 15:28 | 45.26417 | 9.48106 | 36997 ft | 419 kts | 233° |
| 2026-04-25 15:28 | 45.22714 | 9.41731 | 36991 ft | 420 kts | 233° |
| 2026-04-25 15:29 | 45.18995 | 9.35343 | 36989 ft | 421 kts | 233° |
| 2026-04-25 15:29 | 45.15269 | 9.28957 | 36993 ft | 422 kts | 233° |
| 2026-04-25 15:30 | 45.11529 | 9.22562 | 37001 ft | 422 kts | 233° |
| 2026-04-25 15:30 | 45.07760 | 9.16132 | 37007 ft | 422 kts | 233° |
| 2026-04-25 15:31 | 45.04015 | 9.09756 | 37016 ft | 422 kts | 232° |
| 2026-04-25 15:31 | 45.00271 | 9.03395 | 37016 ft | 422 kts | 232° |
| 2026-04-25 15:32 | 44.96524 | 8.97045 | 37019 ft | 421 kts | 232° |
| 2026-04-25 15:32 | 44.92829 | 8.90655 | 37018 ft | 420 kts | 233° |
| 2026-04-25 15:33 | 44.87335 | 8.81038 | 37018 ft | 420 kts | 233° |
| 2026-04-25 15:33 | 44.83649 | 8.74618 | 37023 ft | 419 kts | 233° |
| 2026-04-25 15:34 | 44.79980 | 8.68251 | 37027 ft | 419 kts | 233° |
| 2026-04-25 15:34 | 44.76907 | 8.62932 | 37031 ft | 419 kts | 233° |
| 2026-04-25 15:35 | 44.71069 | 8.52855 | 37036 ft | 419 kts | 233° |
| 2026-04-25 15:36 | 44.65542 | 8.43348 | 37044 ft | 420 kts | 232° |
| 2026-04-25 15:36 | 44.61845 | 8.37004 | 37042 ft | 420 kts | 232° |
| 2026-04-25 15:37 | 44.58141 | 8.30665 | 37040 ft | 421 kts | 232° |
| 2026-04-25 15:37 | 44.54432 | 8.24330 | 37048 ft | 421 kts | 232° |
| 2026-04-25 15:38 | 44.50701 | 8.17971 | 37045 ft | 421 kts | 232° |
| 2026-04-25 15:38 | 44.46984 | 8.11651 | 37054 ft | 422 kts | 232° |
| 2026-04-25 15:39 | 44.43253 | 8.05321 | 37042 ft | 423 kts | 232° |
| 2026-04-25 15:39 | 44.39510 | 7.98984 | 37045 ft | 423 kts | 232° |
| 2026-04-25 15:40 | 44.36372 | 7.93683 | 37036 ft | 423 kts | 232° |
| 2026-04-25 15:40 | 44.31977 | 7.86271 | 37040 ft | 424 kts | 232° |
| 2026-04-25 15:41 | 44.28215 | 7.79944 | 37040 ft | 423 kts | 232° |
| 2026-04-25 15:41 | 44.24095 | 7.74080 | 37050 ft | 425 kts | 223° |
| 2026-04-25 15:42 | 44.19620 | 7.68707 | 37061 ft | 425 kts | 223° |
| 2026-04-25 15:42 | 44.15200 | 7.63258 | 37052 ft | 425 kts | 224° |
| 2026-04-25 15:43 | 44.11188 | 7.57291 | 37075 ft | 423 kts | 231° |
| 2026-04-25 15:43 | 44.07362 | 7.51038 | 37077 ft | 422 kts | 231° |
| 2026-04-25 15:44 | 44.03535 | 7.44841 | 37063 ft | 423 kts | 230° |
| 2026-04-25 15:44 | 43.99692 | 7.38699 | 37069 ft | 423 kts | 230° |
| 2026-04-25 15:45 | 43.95817 | 7.32543 | 37078 ft | 424 kts | 230° |
| 2026-04-25 15:45 | 43.92602 | 7.27447 | 37067 ft | 424 kts | 230° |
| 2026-04-25 15:46 | 43.88065 | 7.20270 | 37071 ft | 424 kts | 230° |
| 2026-04-25 15:46 | 43.84158 | 7.14101 | 37076 ft | 425 kts | 230° |
| 2026-04-25 15:47 | 43.80260 | 7.07960 | 37071 ft | 425 kts | 230° |
| 2026-04-25 15:47 | 43.76366 | 7.01837 | 37065 ft | 425 kts | 230° |
| 2026-04-25 15:48 | 43.72590 | 6.95587 | 37065 ft | 424 kts | 238° |
| 2026-04-25 15:48 | 43.70030 | 6.88279 | 37088 ft | 421 kts | 249° |
| 2026-04-25 15:49 | 43.67878 | 6.80765 | 37075 ft | 422 kts | 249° |
| 2026-04-25 15:49 | 43.65685 | 6.73231 | 37068 ft | 422 kts | 249° |
| 2026-04-25 15:50 | 43.63480 | 6.65761 | 37056 ft | 421 kts | 249° |
| 2026-04-25 15:50 | 43.61253 | 6.58268 | 37037 ft | 421 kts | 248° |
| 2026-04-25 15:51 | 43.59395 | 6.52036 | 37033 ft | 421 kts | 248° |
| 2026-04-25 15:51 | 43.56793 | 6.43329 | 37032 ft | 421 kts | 248° |
| 2026-04-25 15:52 | 43.54550 | 6.35846 | 37020 ft | 422 kts | 248° |
| 2026-04-25 15:52 | 43.52301 | 6.28367 | 37019 ft | 423 kts | 248° |
| 2026-04-25 15:53 | 43.50045 | 6.20880 | 37022 ft | 423 kts | 248° |
| 2026-04-25 15:53 | 43.47795 | 6.13435 | 37030 ft | 423 kts | 248° |
| 2026-04-25 15:54 | 43.45524 | 6.05945 | 37018 ft | 423 kts | 248° |
| 2026-04-25 15:54 | 43.43251 | 5.98464 | 37016 ft | 423 kts | 248° |
| 2026-04-25 15:55 | 43.40992 | 5.91044 | 37037 ft | 423 kts | 248° |
| 2026-04-25 15:55 | 43.38714 | 5.83581 | 37022 ft | 422 kts | 248° |
| 2026-04-25 15:56 | 43.36436 | 5.76138 | 37024 ft | 422 kts | 248° |
| 2026-04-25 15:56 | 43.34154 | 5.68705 | 37039 ft | 421 kts | 248° |
| 2026-04-25 15:57 | 43.31880 | 5.61318 | 37052 ft | 421 kts | 248° |
| 2026-04-25 15:57 | 43.29583 | 5.53875 | 37049 ft | 422 kts | 248° |
| 2026-04-25 15:58 | 43.27297 | 5.46490 | 37054 ft | 422 kts | 248° |
| 2026-04-25 15:58 | 43.25011 | 5.39122 | 37054 ft | 422 kts | 248° |
| 2026-04-25 15:59 | 43.22697 | 5.31694 | 37043 ft | 422 kts | 248° |
| 2026-04-25 15:59 | 43.20381 | 5.24319 | 37057 ft | 422 kts | 248° |
| 2026-04-25 16:00 | 43.18819 | 5.19362 | 37055 ft | 422 kts | 247° |
| 2026-04-25 16:00 | 43.15724 | 5.09553 | 37058 ft | 422 kts | 247° |
| 2026-04-25 16:01 | 43.13383 | 5.02156 | 37058 ft | 422 kts | 247° |
| 2026-04-25 16:01 | 43.11053 | 4.94812 | 37038 ft | 409 kts | 247° |
| 2026-04-25 16:02 | 43.09938 | 4.91305 | 36963 ft | 395 kts | 247° |
| 2026-04-25 16:02 | 43.08851 | 4.87889 | 36559 ft | 390 kts | 247° |
| 2026-04-25 16:02 | 43.07757 | 4.84457 | 35611 ft | 399 kts | 248° |
| 2026-04-25 16:02 | 43.06558 | 4.81009 | 34946 ft | 401 kts | 240° |
| 2026-04-25 16:03 | 43.04945 | 4.77922 | 34571 ft | 397 kts | 231° |
| 2026-04-25 16:03 | 43.03022 | 4.75257 | 33932 ft | 401 kts | 221° |
| 2026-04-25 16:03 | 43.00754 | 4.73009 | 33263 ft | 403 kts | 216° |
| 2026-04-25 16:03 | 42.98432 | 4.70877 | 32766 ft | 400 kts | 216° |
| 2026-04-25 16:04 | 42.96124 | 4.68784 | 32344 ft | 395 kts | 216° |
| 2026-04-25 16:04 | 42.93847 | 4.66715 | 31966 ft | 390 kts | 216° |
| 2026-04-25 16:04 | 42.91608 | 4.64670 | 31599 ft | 385 kts | 216° |
| 2026-04-25 16:04 | 42.89403 | 4.62644 | 31245 ft | 380 kts | 216° |
| 2026-04-25 16:05 | 42.87226 | 4.60638 | 30898 ft | 375 kts | 216° |
| 2026-04-25 16:05 | 42.85082 | 4.58657 | 30554 ft | 370 kts | 216° |
| 2026-04-25 16:05 | 42.80883 | 4.54777 | 29837 ft | 362 kts | 216° |
| 2026-04-25 16:06 | 42.78806 | 4.52858 | 29481 ft | 360 kts | 216° |
| 2026-04-25 16:06 | 42.76714 | 4.50926 | 29156 ft | 369 kts | 216° |
| 2026-04-25 16:06 | 42.74549 | 4.48924 | 28790 ft | 382 kts | 216° |
| 2026-04-25 16:06 | 42.72346 | 4.46893 | 28375 ft | 380 kts | 216° |
| 2026-04-25 16:07 | 42.70170 | 4.44893 | 28006 ft | 375 kts | 216° |
| 2026-04-25 16:07 | 42.69466 | 4.44246 | 27890 ft | 373 kts | 216° |
| 2026-04-25 16:07 | 42.65934 | 4.41004 | 27262 ft | 364 kts | 216° |
| 2026-04-25 16:07 | 42.63845 | 4.39088 | 26920 ft | 359 kts | 216° |
| 2026-04-25 16:08 | 42.61789 | 4.37202 | 26575 ft | 354 kts | 216° |
| 2026-04-25 16:08 | 42.59760 | 4.35343 | 26229 ft | 349 kts | 216° |
| 2026-04-25 16:08 | 42.57751 | 4.33503 | 25891 ft | 345 kts | 216° |
| 2026-04-25 16:08 | 42.55790 | 4.31708 | 25565 ft | 342 kts | 216° |
| 2026-04-25 16:09 | 42.53820 | 4.29905 | 25236 ft | 340 kts | 216° |
| 2026-04-25 16:09 | 42.51851 | 4.28105 | 24922 ft | 344 kts | 216° |
| 2026-04-25 16:09 | 42.49829 | 4.26257 | 24590 ft | 357 kts | 216° |
| 2026-04-25 16:09 | 42.47752 | 4.24360 | 24204 ft | 360 kts | 216° |
| 2026-04-25 16:10 | 42.45686 | 4.22478 | 23855 ft | 356 kts | 216° |
| 2026-04-25 16:10 | 42.43642 | 4.20616 | 23473 ft | 352 kts | 216° |
| 2026-04-25 16:10 | 42.42299 | 4.19395 | 23210 ft | 349 kts | 216° |
| 2026-04-25 16:10 | 42.39641 | 4.16979 | 22717 ft | 343 kts | 216° |
| 2026-04-25 16:11 | 42.37667 | 4.15186 | 22368 ft | 339 kts | 216° |
| 2026-04-25 16:11 | 42.36372 | 4.14010 | 22144 ft | 336 kts | 215° |
| 2026-04-25 16:11 | 42.34441 | 4.12258 | 21814 ft | 331 kts | 215° |
| 2026-04-25 16:11 | 42.32536 | 4.10529 | 21485 ft | 327 kts | 215° |
| 2026-04-25 16:12 | 42.30655 | 4.08824 | 21177 ft | 325 kts | 215° |
| 2026-04-25 16:12 | 42.28779 | 4.07124 | 20848 ft | 323 kts | 215° |
| 2026-04-25 16:12 | 42.26900 | 4.05423 | 20534 ft | 326 kts | 215° |
| 2026-04-25 16:12 | 42.25640 | 4.04283 | 20333 ft | 332 kts | 215° |
| 2026-04-25 16:13 | 42.23031 | 4.01923 | 19890 ft | 340 kts | 216° |
| 2026-04-25 16:13 | 42.21286 | 3.99878 | 19521 ft | 335 kts | 230° |
| 2026-04-25 16:13 | 42.19963 | 3.97317 | 19097 ft | 332 kts | 244° |
| 2026-04-25 16:13 | 42.19010 | 3.94483 | 18651 ft | 331 kts | 248° |
| 2026-04-25 16:14 | 42.18098 | 3.91629 | 18255 ft | 329 kts | 248° |
| 2026-04-25 16:14 | 42.17196 | 3.88805 | 17824 ft | 327 kts | 248° |
| 2026-04-25 16:14 | 42.16288 | 3.85992 | 17403 ft | 326 kts | 248° |
| 2026-04-25 16:14 | 42.15369 | 3.83196 | 16986 ft | 324 kts | 248° |
| 2026-04-25 16:15 | 42.14461 | 3.80463 | 16560 ft | 323 kts | 247° |
| 2026-04-25 16:15 | 42.13540 | 3.77706 | 16215 ft | 320 kts | 247° |
| 2026-04-25 16:15 | 42.12629 | 3.74990 | 15914 ft | 315 kts | 247° |
| 2026-04-25 16:15 | 42.11731 | 3.72326 | 15630 ft | 310 kts | 247° |
| 2026-04-25 16:16 | 42.10843 | 3.69704 | 15354 ft | 305 kts | 247° |
| 2026-04-25 16:16 | 42.09966 | 3.67127 | 15068 ft | 300 kts | 247° |
| 2026-04-25 16:16 | 42.09100 | 3.64588 | 14813 ft | 296 kts | 247° |
| 2026-04-25 16:16 | 42.08253 | 3.62113 | 14568 ft | 293 kts | 247° |
| 2026-04-25 16:17 | 42.07406 | 3.59649 | 14471 ft | 288 kts | 247° |
| 2026-04-25 16:17 | 42.06556 | 3.57175 | 14234 ft | 295 kts | 247° |
| 2026-04-25 16:17 | 42.05674 | 3.54600 | 13964 ft | 309 kts | 247° |
| 2026-04-25 16:17 | 42.04767 | 3.51955 | 13590 ft | 311 kts | 247° |
| 2026-04-25 16:18 | 42.03878 | 3.49366 | 13251 ft | 307 kts | 247° |
| 2026-04-25 16:18 | 42.03576 | 3.48486 | 13148 ft | 305 kts | 247° |
| 2026-04-25 16:18 | 42.02107 | 3.44221 | 12618 ft | 298 kts | 247° |
| 2026-04-25 16:18 | 42.01239 | 3.41705 | 12319 ft | 294 kts | 247° |
| 2026-04-25 16:19 | 42.00380 | 3.39222 | 12021 ft | 290 kts | 247° |
| 2026-04-25 16:19 | 41.99541 | 3.36800 | 11735 ft | 286 kts | 247° |
| 2026-04-25 16:19 | 41.98705 | 3.34389 | 11445 ft | 282 kts | 247° |
| 2026-04-25 16:20 | 41.97060 | 3.29657 | 10881 ft | 278 kts | 247° |
| 2026-04-25 16:20 | 41.96245 | 3.27311 | 10606 ft | 281 kts | 247° |
| 2026-04-25 16:20 | 41.94566 | 3.22467 | 10166 ft | 284 kts | 247° |
| 2026-04-25 16:21 | 41.93753 | 3.20120 | 10035 ft | 275 kts | 247° |
| 2026-04-25 16:21 | 41.92936 | 3.17767 | 9707 ft | 279 kts | 247° |
| 2026-04-25 16:21 | 41.92116 | 3.15399 | 9529 ft | 279 kts | 247° |
| 2026-04-25 16:21 | 41.91301 | 3.13048 | 9429 ft | 277 kts | 247° |
| 2026-04-25 16:22 | 41.90492 | 3.10634 | 8984 ft | 289 kts | 253° |
| 2026-04-25 16:22 | 41.90333 | 3.07989 | 8595 ft | 282 kts | 286° |
| 2026-04-25 16:22 | 41.91224 | 3.05758 | 8355 ft | 268 kts | 317° |
| 2026-04-25 16:22 | 41.92680 | 3.04265 | 8150 ft | 261 kts | 327° |
| 2026-04-25 16:23 | 41.94167 | 3.02885 | 7910 ft | 260 kts | 327° |
| 2026-04-25 16:23 | 41.95644 | 3.01522 | 7666 ft | 260 kts | 327° |
| 2026-04-25 16:23 | 41.97147 | 3.00145 | 7423 ft | 262 kts | 327° |
| 2026-04-25 16:23 | 41.98651 | 2.98747 | 7177 ft | 262 kts | 325° |
| 2026-04-25 16:24 | 42.00127 | 2.97271 | 6805 ft | 264 kts | 324° |
| 2026-04-25 16:24 | 42.01586 | 2.95787 | 6467 ft | 263 kts | 324° |
| 2026-04-25 16:24 | 42.03050 | 2.94309 | 6098 ft | 262 kts | 324° |
| 2026-04-25 16:24 | 42.04496 | 2.92858 | 6024 ft | 257 kts | 324° |
| 2026-04-25 16:25 | 42.05918 | 2.91437 | 5984 ft | 251 kts | 324° |
| 2026-04-25 16:25 | 42.06839 | 2.90516 | 5970 ft | 245 kts | 324° |
| 2026-04-25 16:25 | 42.08551 | 2.88621 | 5688 ft | 240 kts | 308° |
| 2026-04-25 16:25 | 42.09081 | 2.86543 | 5486 ft | 235 kts | 269° |
| 2026-04-25 16:26 | 42.08558 | 2.84535 | 5187 ft | 230 kts | 230° |
| 2026-04-25 16:26 | 42.07320 | 2.83338 | 5144 ft | 210 kts | 212° |
| 2026-04-25 16:26 | 42.05983 | 2.82400 | 4380 ft | 224 kts | 205° |
| 2026-04-25 16:26 | 42.04516 | 2.81590 | 3669 ft | 233 kts | 201° |
| 2026-04-25 16:27 | 42.02948 | 2.80915 | 3029 ft | 235 kts | 196° |
| 2026-04-25 16:27 | 42.01432 | 2.80353 | 2812 ft | 216 kts | 195° |
| 2026-04-25 16:27 | 42.00013 | 2.79823 | 2360 ft | 209 kts | 196° |
| 2026-04-25 16:27 | 41.98642 | 2.79275 | 1952 ft | 199 kts | 198° |
| 2026-04-25 16:28 | 41.97375 | 2.78791 | 1708 ft | 185 kts | 193° |
| 2026-04-25 16:28 | 41.96160 | 2.78429 | 1454 ft | 175 kts | 193° |
| 2026-04-25 16:28 | 41.95002 | 2.78027 | 1169 ft | 165 kts | 198° |
| 2026-04-25 16:28 | 41.93965 | 2.77535 | 1069 ft | 151 kts | 202° |
| 2026-04-25 16:29 | 41.93023 | 2.77126 | 959 ft | 137 kts | 193° |
| 2026-04-25 16:29 | 41.92146 | 2.76836 | 696 ft | 125 kts | 195° |
| 2026-04-25 16:29 | 41.91328 | 2.76524 | 501 ft | 120 kts | 196° |
| 2026-04-25 16:29 | 41.90595 | 2.76248 | 457 ft | 85 kts | 197° |
| 2026-04-25 16:30 | 41.90202 | 2.76098 | 434 ft | 35 kts | 195° |
| 2026-04-25 16:30 | 41.90001 | 2.76021 | 435 ft | 30 kts | 196° |
| 2026-04-25 16:30 | 41.89803 | 2.75947 | 419 ft | 29 kts | 195° |
| 2026-04-25 16:30 | 41.89637 | 2.75883 | 409 ft | 20 kts | 197° |
| 2026-04-25 16:31 | 41.89523 | 2.75915 | 410 ft | 20 kts | 95° |
| 2026-04-25 16:31 | 41.89583 | 2.76073 | 411 ft | 19 kts | 52° |
| 2026-04-25 16:31 | 41.89702 | 2.76137 | 417 ft | 18 kts | 17° |
| 2026-04-25 16:31 | 41.89821 | 2.76181 | 420 ft | 17 kts | 17° |
| 2026-04-25 16:32 | 41.89907 | 2.76250 | 420 ft | 12 kts | 90° |
| 2026-04-25 16:32 | 41.89894 | 2.76326 | 420 ft | 9 kts | 105° |
| 2026-04-25 16:32 | 41.89890 | 2.76346 | 419 ft | 1 kts | 104° |
| 2026-04-25 16:32 | 41.89887 | 2.76361 | 417 ft | 0 kts | 104° |
| 2026-04-25 16:33 | 41.89886 | 2.76381 | 422 ft | 5 kts | 90° |
| 2026-04-25 16:33 | 41.89899 | 2.76462 | 421 ft | 9 kts | 83° |
| 2026-04-25 16:33 | 41.89895 | 2.76493 | 420 ft | 2 kts | 105° |
| 2026-04-25 16:33 | 41.89894 | 2.76497 | 420 ft | 0 kts | 105° |